Time;durP1;ratioP1;P1;durP2;ratioP2;P2;SDS_P1;SDS_P2;PMS_P1;PMS_P2;Temp;Humidity;BMP_temperature;BMP_pressure;BME280_temperature;BME280_humidity;BME280_pressure;Samples;Min_cycle;Max_cycle;Signal;HPM_P1;HPM_P2
2024/03/16 00:00:40;;;;;;;7.80;6.70;;;;;;;9.12;100.00;100456.66;5016679;28;20192;-74
2024/03/16 00:03:07;;;;;;;9.17;7.57;;;;;;;9.11;100.00;100462.28;5015275;28;20207;-73
2024/03/16 00:05:36;;;;;;;8.93;6.43;;;;;;;9.09;100.00;100462.59;5017759;28;20559;-74
2024/03/16 00:08:03;;;;;;;7.43;6.63;;;;;;;9.05;100.00;100466.94;5015822;28;20223;-74
2024/03/16 00:10:30;;;;;;;7.87;6.37;;;;;;;9.03;100.00;100466.50;5035883;22;21404;-72
2024/03/16 00:12:57;;;;;;;7.27;6.07;;;;;;;8.99;100.00;100462.16;5026315;28;20632;-72
2024/03/16 00:15:23;;;;;;;8.37;6.57;;;;;;;8.96;100.00;100458.28;5026411;28;20608;-72
2024/03/16 00:17:50;;;;;;;10.43;6.17;;;;;;;8.92;100.00;100460.03;5027766;28;20206;-72
2024/03/16 00:20:17;;;;;;;7.67;6.03;;;;;;;8.89;100.00;100465.94;5034746;28;20193;-72
2024/03/16 00:22:43;;;;;;;8.20;6.37;;;;;;;8.87;100.00;100468.13;5042955;28;20304;-72
2024/03/16 00:25:10;;;;;;;7.80;6.77;;;;;;;8.83;100.00;100467.19;5023413;28;20558;-72
2024/03/16 00:27:36;;;;;;;6.60;5.80;;;;;;;8.79;100.00;100465.50;5031726;28;20696;-72
2024/03/16 00:30:04;;;;;;;7.70;6.30;;;;;;;8.76;100.00;100463.50;5030169;28;20205;-72
2024/03/16 00:32:31;;;;;;;7.07;6.37;;;;;;;8.73;100.00;100464.13;5035151;28;20210;-72
2024/03/16 00:34:58;;;;;;;7.90;6.00;;;;;;;8.68;100.00;100459.81;5044290;28;20376;-72
2024/03/16 00:37:25;;;;;;;9.60;6.40;;;;;;;8.65;100.00;100457.81;5029206;28;20797;-72
2024/03/16 00:39:51;;;;;;;9.37;6.97;;;;;;;8.62;100.00;100458.44;5029680;28;20208;-72
2024/03/16 00:42:19;;;;;;;7.20;6.20;;;;;;;8.59;100.00;100459.06;5030991;28;20382;-71
2024/03/16 00:44:46;;;;;;;7.83;6.63;;;;;;;8.56;100.00;100461.56;5027386;28;20221;-71
2024/03/16 00:47:13;;;;;;;8.03;6.77;;;;;;;8.53;100.00;100462.19;5024018;28;20600;-72
2024/03/16 00:49:39;;;;;;;8.00;6.60;;;;;;;8.49;100.00;100462.03;5033444;28;20198;-72
2024/03/16 00:52:06;;;;;;;8.60;6.43;;;;;;;8.46;100.00;100459.25;5030086;28;20211;-72
2024/03/16 00:54:32;;;;;;;9.20;6.50;;;;;;;8.42;100.00;100458.34;5027385;28;20253;-72
2024/03/16 00:56:59;;;;;;;7.60;6.03;;;;;;;8.40;100.00;100460.53;5029402;28;20204;-72
2024/03/16 00:59:28;;;;;;;8.87;6.40;;;;;;;8.36;100.00;100456.97;5033221;28;20684;-72
2024/03/16 01:01:54;;;;;;;8.60;6.50;;;;;;;8.32;100.00;100462.09;5028005;28;20196;-72
2024/03/16 01:04:21;;;;;;;6.63;5.93;;;;;;;8.29;100.00;100467.97;5015769;28;20201;-72
2024/03/16 01:06:47;;;;;;;7.03;6.20;;;;;;;8.25;100.00;100464.44;5028026;28;20231;-72
2024/03/16 01:09:16;;;;;;;10.27;6.73;;;;;;;8.23;100.00;100465.81;5030982;28;20190;-71
2024/03/16 01:11:45;;;;;;;8.53;6.33;;;;;;;8.19;100.00;100467.50;5034949;28;20744;-72
2024/03/16 01:14:11;;;;;;;8.07;5.77;;;;;;;8.15;100.00;100463.94;5032379;28;20279;-72
2024/03/16 01:16:38;;;;;;;7.90;6.50;;;;;;;8.11;100.00;100470.91;5037799;28;20670;-72
2024/03/16 01:19:04;;;;;;;9.17;6.30;;;;;;;8.06;100.00;100465.78;5037682;28;20417;-72
2024/03/16 01:21:31;;;;;;;7.50;6.30;;;;;;;8.01;100.00;100469.38;5028601;28;20217;-71
2024/03/16 01:23:58;;;;;;;13.00;6.83;;;;;;;7.98;100.00;100462.09;5031511;28;20266;-72
2024/03/16 01:26:24;;;;;;;10.23;7.27;;;;;;;7.94;100.00;100470.91;5027568;28;20304;-71
2024/03/16 01:28:51;;;;;;;6.90;6.10;;;;;;;7.90;100.00;100469.97;5033685;28;20191;-71
2024/03/16 01:31:18;;;;;;;6.90;5.97;;;;;;;7.85;100.00;100467.50;5025163;28;20210;-72
2024/03/16 01:33:44;;;;;;;6.93;5.90;;;;;;;7.80;100.00;100462.41;5012868;28;20200;-72
2024/03/16 01:36:11;;;;;;;8.40;5.57;;;;;;;7.77;100.00;100468.28;5030735;28;20296;-72
2024/03/16 01:38:37;;;;;;;9.83;6.40;;;;;;;7.73;100.00;100467.34;5018488;28;20662;-72
2024/03/16 01:41:05;;;;;;;6.70;5.53;;;;;;;7.70;100.00;100463.50;5029833;28;20206;-71
2024/03/16 01:43:31;;;;;;;6.87;6.10;;;;;;;7.67;100.00;100450.97;5035633;28;20207;-72
2024/03/16 01:45:58;;;;;;;10.17;6.90;;;;;;;7.66;100.00;100453.91;5033067;28;20247;-72
2024/03/16 01:48:25;;;;;;;9.43;7.00;;;;;;;7.63;100.00;100450.06;5028887;28;20279;-71
2024/03/16 01:50:53;;;;;;;11.40;6.60;;;;;;;7.62;100.00;100456.38;5032966;28;20686;-72
2024/03/16 01:53:20;;;;;;;8.03;6.20;;;;;;;7.61;100.00;100448.81;5035639;28;20195;-71
2024/03/16 01:55:46;;;;;;;9.90;6.90;;;;;;;7.60;100.00;100457.75;5033531;28;20644;-72
2024/03/16 01:58:13;;;;;;;9.27;6.80;;;;;;;7.58;100.00;100459.94;5035073;28;20710;-71
2024/03/16 02:00:42;;;;;;;8.67;7.00;;;;;;;7.56;100.00;100456.84;5029097;28;20194;-72
2024/03/16 02:03:09;;;;;;;9.00;7.20;;;;;;;7.54;100.00;100462.41;5033408;28;20209;-72
2024/03/16 02:05:36;;;;;;;10.67;7.27;;;;;;;7.52;100.00;100451.44;5035820;28;20272;-72
2024/03/16 02:08:02;;;;;;;12.00;7.23;;;;;;;7.51;100.00;100457.00;5031421;28;20259;-72
2024/03/16 02:10:29;;;;;;;13.03;7.53;;;;;;;7.49;100.00;100459.13;5041905;28;20188;-71
2024/03/16 02:12:55;;;;;;;9.57;6.93;;;;;;;7.48;100.00;100458.38;5046680;28;20197;-71
2024/03/16 02:15:22;;;;;;;9.43;6.90;;;;;;;7.45;100.00;100450.34;5052245;28;20226;-71
2024/03/16 02:17:50;;;;;;;11.07;7.23;;;;;;;7.46;100.00;100462.41;5046904;28;20210;-72
2024/03/16 02:20:16;;;;;;;10.17;6.83;;;;;;;7.45;100.00;100463.47;5045878;28;20234;-72
2024/03/16 02:22:43;;;;;;;11.77;6.97;;;;;;;7.44;100.00;100464.53;5053606;28;20211;-71
2024/03/16 02:25:10;;;;;;;9.53;7.03;;;;;;;7.43;100.00;100463.00;5049805;28;20223;-71
2024/03/16 02:27:37;;;;;;;9.67;6.97;;;;;;;7.42;100.00;100456.19;5047440;28;20229;-71
2024/03/16 02:30:04;;;;;;;8.97;7.07;;;;;;;7.40;100.00;100455.75;5038634;28;20243;-72
2024/03/16 02:32:31;;;;;;;8.87;6.67;;;;;;;7.39;100.00;100454.97;5032698;28;20215;-72
2024/03/16 02:34:57;;;;;;;10.67;7.20;;;;;;;7.41;100.00;100459.91;5031383;28;20225;-72
2024/03/16 02:37:24;;;;;;;9.07;7.40;;;;;;;7.40;100.00;100464.38;5025761;28;20278;-72
2024/03/16 02:39:50;;;;;;;10.30;7.37;;;;;;;7.43;100.00;100458.53;5029160;28;20212;-72
2024/03/16 02:42:17;;;;;;;12.80;8.00;;;;;;;7.47;100.00;100463.94;5023109;28;20205;-72
2024/03/16 02:44:44;;;;;;;11.40;8.07;;;;;;;7.51;100.00;100455.13;5033484;28;20623;-72
2024/03/16 02:47:11;;;;;;;11.87;7.90;;;;;;;7.57;100.00;100461.00;5050054;28;20202;-71
2024/03/16 02:49:37;;;;;;;13.13;7.73;;;;;;;7.63;100.00;100462.41;5031278;28;20329;-72
2024/03/16 02:52:04;;;;;;;12.17;8.37;;;;;;;7.68;100.00;100457.78;5029356;28;20268;-72
2024/03/16 02:54:31;;;;;;;13.00;8.33;;;;;;;7.70;100.00;100455.59;5051997;28;20311;-72
2024/03/16 02:56:57;;;;;;;13.60;8.70;;;;;;;7.73;100.00;100457.63;5034194;28;20270;-72
2024/03/16 02:59:24;;;;;;;14.07;8.73;;;;;;;7.74;100.00;100459.16;5027473;28;20202;-72
2024/03/16 03:01:51;;;;;;;13.43;7.97;;;;;;;7.77;100.00;100471.69;5032622;28;20203;-72
2024/03/16 03:04:17;;;;;;;14.33;8.23;;;;;;;7.79;100.00;100460.88;5031150;28;20247;-72
2024/03/16 03:06:44;;;;;;;13.10;7.53;;;;;;;7.81;100.00;100463.97;5029890;28;20199;-71
2024/03/16 03:09:10;;;;;;;10.33;7.50;;;;;;;7.82;100.00;100460.25;5035723;28;20200;-72
2024/03/16 03:11:37;;;;;;;12.90;8.27;;;;;;;7.86;100.00;100455.91;5033405;28;20216;-72
2024/03/16 03:14:04;;;;;;;13.83;9.00;;;;;;;7.91;100.00;100472.31;5050318;28;20199;-72
2024/03/16 03:16:30;;;;;;;12.07;8.17;;;;;;;7.96;100.00;100474.78;5032884;28;20196;-72
2024/03/16 03:18:57;;;;;;;11.70;8.47;;;;;;;8.01;100.00;100460.69;5030231;28;20198;-72
2024/03/16 03:21:23;;;;;;;12.30;8.10;;;;;;;8.07;100.00;100470.00;5020465;28;20212;-71
2024/03/16 03:23:50;;;;;;;11.70;7.87;;;;;;;8.11;100.00;100469.06;5029736;28;20200;-71
2024/03/16 03:26:17;;;;;;;12.90;8.50;;;;;;;8.18;100.00;100471.97;5036552;28;20230;-71
2024/03/16 03:28:43;;;;;;;14.23;8.07;;;;;;;8.24;100.00;100475.25;5030751;28;20261;-72
2024/03/16 03:31:10;;;;;;;11.53;7.97;;;;;;;8.30;100.00;100476.63;5041983;28;20206;-72
2024/03/16 03:33:37;;;;;;;10.70;7.83;;;;;;;8.34;100.00;100480.94;5032994;28;20207;-72
2024/03/16 03:36:04;;;;;;;11.87;8.70;;;;;;;8.39;100.00;100486.03;5035137;28;20312;-72
2024/03/16 03:38:30;;;;;;;11.53;8.07;;;;;;;8.46;100.00;100488.22;5036409;28;20197;-72
2024/03/16 03:40:57;;;;;;;13.43;8.37;;;;;;;8.51;100.00;100482.78;5040278;28;20210;-72
2024/03/16 03:43:24;;;;;;;16.10;8.70;;;;;;;8.59;100.00;100489.91;5031866;28;20209;-72
2024/03/16 03:45:52;;;;;;;11.57;8.23;;;;;;;8.64;100.00;100495.00;5030849;28;20584;-72
2024/03/16 03:48:40;;;;;;;12.23;8.10;;;;;;;8.69;100.00;100486.94;5040122;28;20706;-72
2024/03/16 03:51:07;;;;;;;13.07;8.33;;;;;;;8.77;100.00;100494.00;5046416;28;20206;-71
2024/03/16 03:53:34;;;;;;;11.43;7.87;;;;;;;8.85;100.00;100504.50;5031127;28;20281;-71
2024/03/16 03:56:00;;;;;;;16.33;8.60;;;;;;;8.89;100.00;100496.75;5030670;28;20688;-72
2024/03/16 03:58:27;;;;;;;11.40;8.77;;;;;;;8.96;100.00;100491.78;5030501;28;20210;-72
2024/03/16 04:00:53;;;;;;;11.97;8.33;;;;;;;8.99;100.00;100497.19;5034411;28;20202;-72
2024/03/16 04:03:20;;;;;;;14.47;8.20;;;;;;;9.04;100.00;100496.22;5032880;28;20206;-72
2024/03/16 04:05:47;;;;;;;12.90;7.60;;;;;;;9.07;100.00;100488.44;5031803;28;20245;-72
2024/03/16 04:08:13;;;;;;;9.70;7.63;;;;;;;9.12;100.00;100487.53;5028784;28;20205;-72
2024/03/16 04:10:40;;;;;;;10.87;7.67;;;;;;;9.15;100.00;100487.66;5034782;28;20569;-72
2024/03/16 04:13:06;;;;;;;13.90;8.63;;;;;;;9.22;100.00;100495.06;5034994;28;20252;-72
2024/03/16 04:15:33;;;;;;;11.87;8.40;;;;;;;9.25;100.00;100497.03;5028156;28;20644;-72
2024/03/16 04:17:59;;;;;;;13.43;8.57;;;;;;;9.30;100.00;100499.50;5033642;28;20356;-72
2024/03/16 04:20:26;;;;;;;11.37;8.23;;;;;;;9.33;100.00;100496.25;5033592;28;20304;-72
2024/03/16 04:22:52;;;;;;;12.00;7.97;;;;;;;9.36;100.00;100498.22;5013616;28;20948;-72
2024/03/16 04:25:21;;;;;;;13.37;8.00;;;;;;;9.40;100.00;100499.91;5030919;28;20301;-72
2024/03/16 04:27:48;;;;;;;16.83;8.30;;;;;;;9.43;100.00;100503.78;5033321;28;20623;-72
2024/03/16 04:30:15;;;;;;;11.60;8.10;;;;;;;9.46;100.00;100509.19;5041982;28;20204;-72
2024/03/16 04:32:41;;;;;;;14.77;7.77;;;;;;;9.49;100.00;100505.13;5029628;28;20214;-72
2024/03/16 04:35:08;;;;;;;11.43;8.43;;;;;;;9.51;100.00;100503.72;5030008;28;20301;-72
2024/03/16 04:37:35;;;;;;;11.07;7.30;;;;;;;9.54;100.00;100504.94;5033224;28;20214;-72
2024/03/16 04:40:03;;;;;;;10.87;7.77;;;;;;;9.56;100.00;100500.13;5036087;28;20229;-72
2024/03/16 04:42:29;;;;;;;14.53;7.80;;;;;;;9.59;100.00;100517.94;5034667;28;20235;-72
2024/03/16 04:44:56;;;;;;;8.60;6.90;;;;;;;9.60;100.00;100512.34;5037303;28;20275;-72
2024/03/16 04:47:23;;;;;;;9.07;7.23;;;;;;;9.64;100.00;100515.88;5052162;28;20209;-72
2024/03/16 04:49:52;;;;;;;12.70;8.10;;;;;;;9.66;100.00;100523.47;5031186;28;20600;-72
2024/03/16 04:52:19;;;;;;;8.37;6.77;;;;;;;9.67;100.00;100522.38;5022253;28;20219;-72
2024/03/16 04:54:45;;;;;;;8.63;6.20;;;;;;;9.69;100.00;100525.47;5034354;28;20297;-72
2024/03/16 04:57:13;;;;;;;8.10;6.20;;;;;;;9.69;100.00;100518.31;5041380;28;20690;-72
2024/03/16 04:59:42;;;;;;;9.03;6.43;;;;;;;9.70;100.00;100519.91;5041770;28;20205;-72
2024/03/16 05:02:09;;;;;;;9.57;5.90;;;;;;;9.71;100.00;100521.44;5022352;28;20202;-72
2024/03/16 05:04:35;;;;;;;6.53;5.83;;;;;;;9.71;100.00;100529.34;5033838;28;20229;-72
2024/03/16 05:07:02;;;;;;;8.20;5.33;;;;;;;9.72;100.00;100525.63;5031251;28;20199;-72
2024/03/16 05:09:29;;;;;;;9.60;6.63;;;;;;;9.73;100.00;100521.88;5033750;28;20201;-72
2024/03/16 05:11:55;;;;;;;6.47;5.20;;;;;;;9.73;100.00;100518.47;5011288;28;20226;-72
2024/03/16 05:14:22;;;;;;;7.00;5.00;;;;;;;9.74;100.00;100531.31;5031347;28;20199;-72
2024/03/16 05:16:48;;;;;;;5.83;5.00;;;;;;;9.75;100.00;100530.25;5033736;28;20196;-72
2024/03/16 05:19:15;;;;;;;5.97;5.20;;;;;;;9.75;100.00;100532.09;5034406;28;20206;-72
2024/03/16 05:21:42;;;;;;;6.97;5.40;;;;;;;9.75;100.00;100529.47;5038701;28;20202;-72
2024/03/16 05:24:08;;;;;;;5.47;4.17;;;;;;;9.74;100.00;100528.69;5036441;28;20230;-72
2024/03/16 05:26:35;;;;;;;6.27;5.00;;;;;;;9.76;100.00;100533.66;5034694;28;20738;-72
2024/03/16 05:29:03;;;;;;;8.83;4.90;;;;;;;9.75;100.00;100545.28;5037122;28;20523;-72
2024/03/16 05:31:31;;;;;;;7.90;5.00;;;;;;;9.74;100.00;100538.47;5035205;28;20632;-71
2024/03/16 05:33:58;;;;;;;7.80;4.73;;;;;;;9.72;100.00;100544.06;5036025;28;20696;-71
2024/03/16 05:36:24;;;;;;;6.33;4.13;;;;;;;9.71;100.00;100542.53;5036150;28;20226;-72
2024/03/16 05:38:54;;;;;;;6.13;4.30;;;;;;;9.66;100.00;100547.19;5035666;28;20226;-72
2024/03/16 05:41:21;;;;;;;5.60;4.43;;;;;;;9.63;100.00;100542.59;5028924;28;20578;-72
2024/03/16 05:43:47;;;;;;;6.13;4.00;;;;;;;9.57;100.00;100549.91;5035870;28;20676;-72
2024/03/16 05:46:15;;;;;;;4.37;3.93;;;;;;;9.52;100.00;100550.06;5028405;28;20223;-72
2024/03/16 05:48:42;;;;;;;5.77;4.57;;;;;;;9.50;100.00;100551.47;5034077;28;20690;-72
2024/03/16 05:51:08;;;;;;;5.23;4.20;;;;;;;9.45;100.00;100559.56;5032758;28;20692;-71
2024/03/16 05:53:35;;;;;;;6.73;4.10;;;;;;;9.42;100.00;100554.94;5032447;28;20700;-71
2024/03/16 05:56:02;;;;;;;4.90;4.20;;;;;;;9.38;100.00;100567.97;5034907;28;20707;-72
2024/03/16 05:58:31;;;;;;;4.43;4.03;;;;;;;9.34;100.00;100574.97;5045045;28;20279;-72
2024/03/16 06:00:58;;;;;;;4.63;3.93;;;;;;;9.30;100.00;100575.91;5031047;28;20199;-72
2024/03/16 06:03:25;;;;;;;5.23;3.90;;;;;;;9.26;100.00;100581.03;5036769;28;20199;-71
2024/03/16 06:05:52;;;;;;;4.73;3.63;;;;;;;9.22;100.00;100577.50;5028233;28;20671;-72
2024/03/16 06:08:18;;;;;;;5.87;4.30;;;;;;;9.18;100.00;100576.59;5034242;28;20207;-72
2024/03/16 06:10:45;;;;;;;4.33;3.80;;;;;;;9.14;100.00;100577.53;5031928;28;20195;-72
2024/03/16 06:13:13;;;;;;;5.23;4.20;;;;;;;9.10;100.00;100577.38;5017244;28;20226;-72
2024/03/16 06:15:39;;;;;;;5.50;4.20;;;;;;;9.07;100.00;100583.28;5034271;28;20652;-72
2024/03/16 06:18:06;;;;;;;6.47;4.63;;;;;;;9.04;100.00;100586.56;5032014;28;20209;-71
2024/03/16 06:20:32;;;;;;;5.73;3.90;;;;;;;9.03;100.00;100592.13;5030794;28;20199;-72
2024/03/16 06:22:59;;;;;;;6.93;4.73;;;;;;;9.00;100.00;100593.53;5051260;28;20557;-72
2024/03/16 06:25:29;;;;;;;6.60;4.67;;;;;;;8.99;100.00;100588.56;5034473;28;20669;-71
2024/03/16 06:28:05;;;;;;;6.93;4.40;;;;;;;8.98;100.00;100597.56;5038930;28;20582;-71
2024/03/16 06:30:31;;;;;;;6.20;4.87;;;;;;;8.98;100.00;100602.84;5037989;28;20259;-72
2024/03/16 06:33:08;;;;;;;8.63;5.70;;;;;;;8.99;100.00;100605.16;5029841;28;20267;-72
2024/03/16 06:35:36;;;;;;;11.67;4.97;;;;;;;9.00;100.00;100613.84;5051386;28;20224;-71
2024/03/16 06:38:02;;;;;;;6.50;4.40;;;;;;;9.01;100.00;100613.50;5033623;28;20218;-72
2024/03/16 06:40:29;;;;;;;6.10;4.40;;;;;;;9.03;100.00;100621.09;5032700;28;20569;-72
2024/03/16 06:42:56;;;;;;;5.10;4.43;;;;;;;9.06;100.00;100623.13;5036067;28;20193;-72
2024/03/16 06:45:22;;;;;;;6.13;4.50;;;;;;;9.08;100.00;100619.09;5031940;28;20224;-72
2024/03/16 06:47:49;;;;;;;7.17;4.57;;;;;;;9.14;100.00;100624.94;5032520;28;20203;-72
2024/03/16 06:50:15;;;;;;;6.90;4.77;;;;;;;9.21;100.00;100620.75;5025752;28;20215;-71
2024/03/16 06:52:42;;;;;;;8.80;5.43;;;;;;;9.27;100.00;100621.34;5033385;28;20237;-72
2024/03/16 06:55:09;;;;;;;7.53;5.33;;;;;;;9.36;100.00;100628.13;5045195;28;20303;-72
2024/03/16 06:57:35;;;;;;;6.33;4.37;;;;;;;9.48;100.00;100630.13;5035153;28;20281;-72
2024/03/16 07:00:02;;;;;;;5.50;4.60;;;;;;;9.56;100.00;100631.91;5032848;28;20210;-72
2024/03/16 07:02:31;;;;;;;6.83;4.23;;;;;;;9.65;100.00;100630.81;5032223;28;20197;-72
2024/03/16 07:05:00;;;;;;;7.43;4.20;;;;;;;9.81;100.00;100620.47;5031278;28;20214;-72
2024/03/16 07:07:27;;;;;;;4.63;3.90;;;;;;;9.88;100.00;100623.41;5032559;28;20203;-72
2024/03/16 07:09:54;;;;;;;5.37;3.73;;;;;;;9.96;100.00;100628.63;5032810;28;20191;-72
2024/03/16 07:12:21;;;;;;;7.13;3.73;;;;;;;10.09;100.00;100629.50;5033230;28;20230;-72
2024/03/16 07:14:47;;;;;;;6.70;2.90;;;;;;;10.17;100.00;100636.59;5032677;28;20237;-72
2024/03/16 07:17:14;;;;;;;4.50;2.80;;;;;;;10.23;100.00;100641.38;5015490;28;20547;-72
2024/03/16 07:19:41;;;;;;;4.93;2.97;;;;;;;10.30;100.00;100643.50;5027966;28;20695;-72
2024/03/16 07:22:07;;;;;;;3.97;2.80;;;;;;;10.35;100.00;100646.69;5030162;28;20215;-72
2024/03/16 07:24:34;;;;;;;3.50;2.87;;;;;;;10.43;100.00;100650.38;5032589;28;20301;-72
2024/03/16 07:27:01;;;;;;;3.40;2.53;;;;;;;10.47;100.00;100649.44;5030180;28;20569;-72
2024/03/16 07:29:28;;;;;;;4.60;2.63;;;;;;;10.53;100.00;100656.06;5027820;28;20589;-72
2024/03/16 07:31:54;;;;;;;3.60;2.27;;;;;;;10.61;100.00;100655.19;5032015;28;20550;-72
2024/03/16 07:34:21;;;;;;;3.83;2.10;;;;;;;10.66;100.00;100660.28;5035651;28;20217;-72
2024/03/16 07:36:48;;;;;;;2.30;2.00;;;;;;;10.76;100.00;100659.88;5044351;28;20561;-72
2024/03/16 07:39:15;;;;;;;3.00;1.80;;;;;;;10.87;100.00;100660.28;5029789;28;20210;-72
2024/03/16 07:41:41;;;;;;;3.00;2.70;;;;;;;10.97;100.00;100659.88;5044714;28;20680;-72
2024/03/16 07:44:08;;;;;;;2.33;1.90;;;;;;;11.10;100.00;100656.16;5041367;28;20195;-72
2024/03/16 07:46:34;;;;;;;2.53;1.77;;;;;;;11.17;100.00;100659.03;5037022;28;20613;-72
2024/03/16 07:49:01;;;;;;;3.87;1.80;;;;;;;11.30;100.00;100658.75;5035880;28;20203;-72
2024/03/16 07:51:28;;;;;;;2.00;1.80;;;;;;;11.47;100.00;100653.25;5037799;28;20213;-72
2024/03/16 07:54:00;;;;;;;3.73;1.50;;;;;;;11.61;100.00;100652.97;5033493;28;20213;-72
2024/03/16 07:56:29;;;;;;;1.50;1.33;;;;;;;11.77;100.00;100646.69;5028258;28;20219;-73
2024/03/16 07:58:57;;;;;;;1.70;1.60;;;;;;;11.91;100.00;100651.66;5029919;28;20204;-72
2024/03/16 08:01:23;;;;;;;1.73;1.47;;;;;;;12.00;100.00;100650.41;5029239;28;20206;-72
2024/03/16 08:03:50;;;;;;;1.23;1.13;;;;;;;12.12;100.00;100654.94;5028929;28;20194;-72
2024/03/16 08:06:16;;;;;;;1.40;1.23;;;;;;;12.28;100.00;100658.44;5027869;28;20223;-73
2024/03/16 08:08:43;;;;;;;1.93;1.37;;;;;;;12.38;100.00;100660.63;5029674;28;20201;-72
2024/03/16 08:11:10;;;;;;;3.40;2.10;;;;;;;12.52;100.00;100663.69;5030081;28;20291;-72
2024/03/16 08:13:37;;;;;;;4.27;1.70;;;;;;;12.62;100.00;100669.25;5030346;28;20216;-72
2024/03/16 08:16:03;;;;;;;1.97;1.30;;;;;;;12.81;100.00;100666.00;5029524;28;20222;-73
2024/03/16 08:18:30;;;;;;;2.07;1.40;;;;;;;12.94;100.00;100680.75;5035692;28;20205;-72
2024/03/16 08:20:57;;;;;;;2.77;1.10;;;;;;;13.04;100.00;100678.41;5032907;28;20210;-73
2024/03/16 08:23:24;;;;;;;3.13;1.33;;;;;;;13.15;100.00;100684.00;5047162;28;20191;-73
2024/03/16 08:25:51;;;;;;;2.30;1.50;;;;;;;13.23;100.00;100680.41;5035074;28;20225;-73
2024/03/16 08:28:18;;;;;;;2.33;1.30;;;;;;;13.29;100.00;100682.47;5035769;28;20225;-73
2024/03/16 08:30:44;;;;;;;1.57;1.27;;;;;;;13.37;100.00;100684.19;5035469;28;20232;-73
2024/03/16 08:33:11;;;;;;;1.53;1.10;;;;;;;13.42;100.00;100689.25;5030937;28;20297;-73
2024/03/16 08:35:37;;;;;;;1.47;1.20;;;;;;;13.46;100.00;100681.38;5031665;28;20226;-73
2024/03/16 08:38:04;;;;;;;1.80;1.40;;;;;;;13.49;100.00;100684.13;5029291;28;20276;-73
2024/03/16 08:40:34;;;;;;;1.83;1.30;;;;;;;13.51;100.00;100683.78;5031022;28;20289;-72
2024/03/16 08:43:00;;;;;;;3.97;1.50;;;;;;;13.54;100.00;100691.81;5030700;28;20207;-73
2024/03/16 08:45:27;;;;;;;1.50;1.30;;;;;;;13.54;100.00;100685.72;5032470;28;20430;-73
2024/03/16 08:47:54;;;;;;;3.07;2.07;;;;;;;13.52;100.00;100686.09;5030376;28;20201;-73
2024/03/16 08:50:20;;;;;;;2.17;1.20;;;;;;;13.51;100.00;100679.22;5035665;28;20205;-73
2024/03/16 08:52:47;;;;;;;2.03;1.20;;;;;;;13.46;100.00;100682.13;5034330;28;20196;-72
2024/03/16 08:55:14;;;;;;;2.03;1.20;;;;;;;13.41;100.00;100679.72;5048728;28;20228;-72
2024/03/16 08:57:41;;;;;;;1.47;1.00;;;;;;;13.37;100.00;100676.25;5031897;28;20204;-73
2024/03/16 09:00:11;;;;;;;1.27;1.00;;;;;;;13.30;100.00;100670.75;5034545;28;20282;-73
2024/03/16 09:02:38;;;;;;;0.70;0.70;;;;;;;13.25;100.00;100670.25;5036647;28;20659;-72
2024/03/16 09:05:08;;;;;;;2.13;0.90;;;;;;;13.25;100.00;100676.28;5032744;28;20220;-73
2024/03/16 09:07:34;;;;;;;2.47;1.00;;;;;;;13.27;100.00;100675.97;5017082;28;20685;-72
2024/03/16 09:10:01;;;;;;;1.77;1.10;;;;;;;13.28;100.00;100680.16;5028211;28;20202;-73
2024/03/16 09:12:28;;;;;;;3.47;1.50;;;;;;;13.33;100.00;100679.91;5031305;28;20214;-73
2024/03/16 09:14:55;;;;;;;3.20;1.30;;;;;;;13.34;100.00;100678.78;5046725;28;20246;-73
2024/03/16 09:17:22;;;;;;;1.37;0.90;;;;;;;13.38;100.00;100675.13;5031351;28;20205;-73
2024/03/16 09:19:48;;;;;;;2.07;1.20;;;;;;;13.41;100.00;100673.69;5018053;28;20210;-72
2024/03/16 09:22:16;;;;;;;4.47;1.27;;;;;;;13.46;100.00;100676.81;5031843;28;20209;-73
2024/03/16 09:24:42;;;;;;;2.90;1.20;;;;;;;13.54;100.00;100667.94;5036527;28;20217;-73
2024/03/16 09:27:09;;;;;;;2.27;1.00;;;;;;;13.66;100.00;100675.06;5032729;28;20198;-73
2024/03/16 09:29:41;;;;;;;1.73;0.90;;;;;;;13.76;100.00;100674.53;5034410;28;20200;-72
2024/03/16 09:32:08;;;;;;;1.70;1.00;;;;;;;13.87;100.00;100675.56;5016725;28;20639;-72
2024/03/16 09:34:34;;;;;;;1.73;1.20;;;;;;;13.93;100.00;100674.91;5026829;28;20697;-72
2024/03/16 09:37:01;;;;;;;1.00;1.00;;;;;;;14.00;100.00;100671.66;5044582;28;20199;-73
2024/03/16 09:39:28;;;;;;;1.37;1.10;;;;;;;14.00;100.00;100683.06;5034838;28;20220;-73
2024/03/16 09:41:57;;;;;;;2.07;1.30;;;;;;;14.05;100.00;100682.03;5030585;28;20200;-73
2024/03/16 09:44:23;;;;;;;3.50;1.37;;;;;;;14.06;100.00;100681.69;5030053;28;20824;-73
2024/03/16 09:46:50;;;;;;;2.20;1.30;;;;;;;14.13;100.00;100681.81;5015029;28;20213;-73
2024/03/16 09:49:16;;;;;;;2.37;1.23;;;;;;;14.19;100.00;100682.34;5033469;28;20206;-73
2024/03/16 09:51:43;;;;;;;1.97;1.30;;;;;;;14.27;100.00;100676.88;5030848;28;20213;-72
2024/03/16 09:54:10;;;;;;;3.53;1.17;;;;;;;14.41;100.00;100682.47;5029319;28;20290;-73
2024/03/16 09:56:39;;;;;;;1.47;1.30;;;;;;;14.54;100.00;100680.47;5017368;28;20208;-73
2024/03/16 09:59:06;;;;;;;4.67;1.27;;;;;;;14.64;100.00;100682.56;5029122;28;20199;-72
2024/03/16 10:01:34;;;;;;;1.70;1.37;;;;;;;14.71;100.00;100680.84;5031027;28;20199;-73
2024/03/16 10:04:00;;;;;;;3.97;1.83;;;;;;;14.75;100.00;100686.97;5030010;28;20192;-73
2024/03/16 10:06:27;;;;;;;2.63;1.50;;;;;;;14.79;100.00;100684.38;5028348;28;20218;-73
2024/03/16 10:09:09;;;;;;;2.23;1.00;;;;;;;14.81;100.00;100682.16;5031173;28;20217;-72
2024/03/16 10:11:36;;;;;;;1.50;1.30;;;;;;;14.84;100.00;100682.22;5032837;28;20284;-73
2024/03/16 10:14:04;;;;;;;1.20;1.03;;;;;;;14.91;100.00;100685.00;5031070;28;20260;-73
2024/03/16 10:16:32;;;;;;;2.47;1.13;;;;;;;14.98;100.00;100685.16;5029004;28;20765;-73
2024/03/16 10:18:59;;;;;;;1.77;1.20;;;;;;;15.01;100.00;100681.78;5034246;28;20682;-73
2024/03/16 10:21:27;;;;;;;1.23;1.10;;;;;;;14.99;100.00;100685.91;5047767;28;20199;-73
2024/03/16 10:23:54;;;;;;;1.67;1.00;;;;;;;14.98;100.00;100685.16;5030702;28;20195;-73
2024/03/16 10:26:20;;;;;;;5.43;4.67;;;;;;;14.95;100.00;100685.84;5031247;28;20222;-72
2024/03/16 10:28:47;;;;;;;2.13;1.40;;;;;;;14.91;100.00;100686.91;5030611;28;20191;-72
2024/03/16 10:31:16;;;;;;;1.67;0.90;;;;;;;14.87;100.00;100688.72;5032532;28;20212;-73
2024/03/16 10:33:43;;;;;;;1.77;1.10;;;;;;;14.88;100.00;100692.91;5047261;28;20215;-72
2024/03/16 10:36:11;;;;;;;1.33;1.00;;;;;;;14.93;100.00;100692.63;5030685;28;20596;-72
2024/03/16 10:38:42;;;;;;;1.23;1.10;;;;;;;14.95;100.00;100687.75;5031016;28;20308;-72
2024/03/16 10:41:09;;;;;;;2.30;0.90;;;;;;;14.97;100.00;100694.25;5032640;28;20206;-73
2024/03/16 10:43:36;;;;;;;1.57;0.90;;;;;;;14.99;100.00;100678.69;5026639;28;20256;-73
2024/03/16 10:46:05;;;;;;;2.43;0.97;;;;;;;14.99;100.00;100683.25;5027518;28;20302;-73
2024/03/16 10:48:32;;;;;;;2.73;1.50;;;;;;;14.92;91.66;100685.78;5027145;28;20292;-73
2024/03/16 10:50:58;;;;;;;1.97;0.80;;;;;;;14.88;93.86;100685.72;5030937;28;20749;-72
2024/03/16 10:53:26;;;;;;;1.43;0.70;;;;;;;14.84;92.81;100686.75;5033078;28;20454;-73
2024/03/16 10:55:53;;;;;;;5.33;1.20;;;;;;;14.74;90.05;100688.09;5029966;28;20261;-72
2024/03/16 10:58:20;;;;;;;2.57;0.87;;;;;;;14.69;88.54;100688.38;5033741;28;20665;-73
2024/03/16 11:00:47;;;;;;;1.70;1.00;;;;;;;14.72;92.22;100685.03;5030901;28;20198;-72
2024/03/16 11:03:22;;;;;;;1.37;0.83;;;;;;;14.77;94.41;100694.59;5029265;28;20772;-73
2024/03/16 11:05:54;;;;;;;1.33;1.10;;;;;;;14.78;94.86;100693.47;5028224;28;20215;-72
2024/03/16 11:08:24;;;;;;;2.70;1.50;;;;;;;14.78;95.39;100693.47;5027734;28;20611;-73
2024/03/16 11:10:52;;;;;;;2.77;1.17;;;;;;;14.85;93.24;100690.97;5030327;28;20707;-72
2024/03/16 11:13:19;;;;;;;3.90;1.10;;;;;;;14.91;91.04;100685.00;5031353;28;20205;-73
2024/03/16 11:15:46;;;;;;;1.17;0.97;;;;;;;15.00;88.93;100684.81;5032888;28;20214;-72
2024/03/16 11:18:43;;;;;;;2.67;1.20;;;;;;;15.12;91.60;100685.38;5030814;28;20195;-73
2024/03/16 11:21:15;;;;;;;2.93;1.13;;;;;;;15.27;90.20;100689.09;5038408;28;20233;-73